Time;durP1;ratioP1;P1;durP2;ratioP2;P2;SDS_P1;SDS_P2;PMS_P1;PMS_P2;Temp;Humidity;BMP_temperature;BMP_pressure;BME280_temperature;BME280_humidity;BME280_pressure;Samples;Min_cycle;Max_cycle;Signal;HPM_P1;HPM_P2
2024/03/25 00:00:38;;;;;;;2.53;0.90;;;12.80;82.80;;;;;;4921115;29;20044;-79
2024/03/25 00:03:04;;;;;;;4.00;1.20;;;12.80;82.80;;;;;;4938639;29;20031;-79
2024/03/25 00:05:32;;;;;;;2.88;0.90;;;12.80;82.80;;;;;;4905609;29;20035;-79
2024/03/25 00:07:58;;;;;;;2.95;1.10;;;12.70;82.90;;;;;;4938513;29;20473;-78
2024/03/25 00:10:24;;;;;;;2.75;0.90;;;12.90;82.90;;;;;;4920746;29;20440;-79
2024/03/25 00:12:54;;;;;;;2.42;0.90;;;12.80;82.90;;;;;;4920856;29;20135;-79
2024/03/25 00:15:20;;;;;;;3.60;1.10;;;12.80;82.90;;;;;;4921051;29;20059;-78
2024/03/25 00:17:49;;;;;;;3.15;1.35;;;12.70;82.90;;;;;;4920591;29;20074;-78
2024/03/25 00:20:15;;;;;;;2.42;1.00;;;12.80;82.90;;;;;;4937872;29;20047;-79
2024/03/25 00:22:41;;;;;;;2.95;1.17;;;12.80;82.90;;;;;;4937889;29;20515;-79
2024/03/25 00:25:07;;;;;;;3.35;1.00;;;12.80;82.90;;;;;;4920810;29;20086;-78
2024/03/25 00:27:33;;;;;;;4.15;1.50;;;12.80;82.90;;;;;;4938126;29;20047;-79
2024/03/25 00:29:59;;;;;;;3.15;1.10;;;12.80;82.90;;;;;;4937749;29;20402;-78
2024/03/25 00:32:24;;;;;;;4.15;1.30;;;12.80;82.90;;;;;;4920139;29;20042;-79
2024/03/25 00:34:50;;;;;;;3.40;1.20;;;12.70;82.90;;;;;;4937213;29;20472;-78
2024/03/25 00:37:16;;;;;;;3.47;1.10;;;12.80;83.00;;;;;;4938215;29;20488;-77
2024/03/25 00:39:41;;;;;;;3.72;1.20;;;12.80;83.00;;;;;;4936270;29;20552;-79
2024/03/25 00:42:07;;;;;;;2.15;0.93;;;12.90;83.10;;;;;;4920408;29;20024;-79
2024/03/25 00:44:32;;;;;;;2.53;0.90;;;12.80;82.90;;;;;;4937926;29;20063;-79
2024/03/25 00:46:58;;;;;;;3.28;1.00;;;12.70;83.00;;;;;;4920446;29;20110;-78
2024/03/25 00:49:24;;;;;;;2.47;0.98;;;12.70;82.90;;;;;;4937346;29;20118;-78
2024/03/25 00:51:50;;;;;;;4.38;1.13;;;12.80;83.00;;;;;;4937375;29;20031;-79
2024/03/25 00:54:15;;;;;;;2.53;1.00;;;12.90;83.10;;;;;;4937243;29;20032;-78
2024/03/25 00:56:41;;;;;;;3.78;1.15;;;12.70;83.00;;;;;;4904589;29;20511;-78
2024/03/25 00:59:07;;;;;;;3.35;1.30;;;12.80;83.00;;;;;;4937311;29;20028;-79
2024/03/25 01:01:33;;;;;;;2.70;1.00;;;12.80;83.00;;;;;;4920133;29;20028;-78
2024/03/25 01:03:59;;;;;;;2.97;1.10;;;12.80;83.10;;;;;;4920098;29;20038;-78
2024/03/25 01:06:24;;;;;;;3.08;1.25;;;12.80;83.00;;;;;;4936958;29;20493;-79
2024/03/25 01:08:51;;;;;;;2.95;1.00;;;12.80;83.00;;;;;;4937062;29;20040;-78
2024/03/25 01:11:17;;;;;;;3.08;1.13;;;12.80;83.00;;;;;;4936843;29;20031;-79
2024/03/25 01:13:42;;;;;;;3.05;1.10;;;12.70;83.00;;;;;;4936937;29;20378;-78
2024/03/25 01:16:08;;;;;;;2.33;1.02;;;12.80;83.10;;;;;;4936884;29;20035;-78
2024/03/25 01:18:34;;;;;;;3.47;1.27;;;12.90;83.20;;;;;;4951292;28;20062;-79
2024/03/25 01:21:00;;;;;;;3.30;1.10;;;12.80;83.10;;;;;;4955831;29;20484;-79
2024/03/25 01:23:26;;;;;;;2.60;0.95;;;12.80;83.00;;;;;;4938333;29;20027;-79
2024/03/25 01:25:52;;;;;;;3.33;0.85;;;12.90;83.20;;;;;;4955394;29;20023;-78
2024/03/25 01:28:17;;;;;;;3.67;1.08;;;12.70;83.10;;;;;;4954131;29;20503;-78
2024/03/25 01:30:43;;;;;;;3.25;1.10;;;12.80;83.20;;;;;;4937583;29;20039;-78
2024/03/25 01:33:09;;;;;;;3.60;1.17;;;12.80;83.10;;;;;;4955450;29;20027;-79
2024/03/25 01:35:35;;;;;;;3.33;1.00;;;12.80;83.20;;;;;;4938237;29;20051;-79
2024/03/25 01:38:01;;;;;;;2.67;0.90;;;12.80;83.20;;;;;;4955740;29;20049;-78
2024/03/25 01:40:27;;;;;;;3.60;1.25;;;12.80;83.20;;;;;;4955731;29;20110;-78
2024/03/25 01:42:59;;;;;;;2.13;0.88;;;12.80;83.30;;;;;;4955406;28;20034;-79
2024/03/25 01:45:26;;;;;;;3.15;1.00;;;12.70;83.20;;;;;;4938369;29;20518;-78
2024/03/25 01:47:54;;;;;;;3.20;1.00;;;12.80;83.10;;;;;;4955390;29;20031;-78
2024/03/25 01:50:20;;;;;;;3.40;1.00;;;12.70;83.10;;;;;;4954883;29;20098;-78
2024/03/25 01:52:46;;;;;;;3.25;0.93;;;12.80;83.20;;;;;;4955229;29;20562;-76
2024/03/25 01:55:26;;;;;;;2.50;1.00;;;12.80;83.20;;;;;;4954070;29;20031;-78
2024/03/25 01:57:52;;;;;;;2.53;1.15;;;12.80;83.30;;;;;;4954112;29;20515;-78
2024/03/25 02:00:18;;;;;;;4.25;1.17;;;12.80;83.20;;;;;;4937675;29;20035;-78
2024/03/25 02:02:45;;;;;;;3.42;1.00;;;12.80;83.20;;;;;;4955330;29;20031;-78
2024/03/25 02:05:11;;;;;;;3.47;1.23;;;12.80;83.20;;;;;;4955134;29;20034;-78
2024/03/25 02:07:38;;;;;;;3.10;1.10;;;12.70;83.20;;;;;;4937882;29;20031;-77
2024/03/25 02:10:04;;;;;;;2.92;1.00;;;12.80;83.20;;;;;;4955099;29;20031;-78
2024/03/25 02:12:31;;;;;;;2.35;1.00;;;12.80;83.20;;;;;;4955124;29;20221;-78
2024/03/25 02:14:58;;;;;;;2.88;1.08;;;12.80;83.20;;;;;;4938067;29;20070;-78
2024/03/25 02:17:24;;;;;;;3.50;1.00;;;12.80;83.30;;;;;;4937599;29;20372;-78
2024/03/25 02:19:50;;;;;;;4.05;1.35;;;12.80;83.20;;;;;;4954880;29;20023;-78
2024/03/25 02:22:16;;;;;;;4.15;1.30;;;12.70;83.20;;;;;;4955048;29;20029;-78
2024/03/25 02:24:44;;;;;;;3.17;1.35;;;12.80;83.30;;;;;;4954931;29;20020;-79
2024/03/25 02:27:14;;;;;;;2.90;1.00;;;12.80;83.30;;;;;;4937602;29;20031;-79
2024/03/25 02:29:41;;;;;;;2.67;1.27;;;12.80;83.40;;;;;;4937380;29;20033;-79
2024/03/25 02:32:10;;;;;;;3.00;1.10;;;12.80;83.30;;;;;;4937452;29;20038;-79
2024/03/25 02:34:37;;;;;;;3.50;1.20;;;12.80;83.30;;;;;;4954797;29;20024;-79
2024/03/25 02:37:03;;;;;;;3.50;1.08;;;12.70;83.20;;;;;;4937337;29;20019;-79
2024/03/25 02:39:29;;;;;;;3.67;1.15;;;12.80;83.30;;;;;;4937159;29;20030;-78
2024/03/25 02:41:55;;;;;;;3.03;1.10;;;12.80;83.40;;;;;;4937433;29;20395;-78
2024/03/25 02:44:22;;;;;;;2.80;1.00;;;12.80;83.40;;;;;;4954825;29;20081;-78
2024/03/25 02:46:48;;;;;;;3.47;1.20;;;12.70;83.40;;;;;;4937519;29;20066;-78
2024/03/25 02:49:14;;;;;;;2.25;0.82;;;12.80;83.40;;;;;;4954490;29;20420;-78
2024/03/25 02:51:39;;;;;;;3.30;1.08;;;12.70;83.30;;;;;;4954258;29;20035;-78
2024/03/25 02:54:05;;;;;;;3.58;1.20;;;12.80;83.40;;;;;;4954424;29;20043;-79
2024/03/25 02:56:30;;;;;;;2.47;1.00;;;12.80;83.30;;;;;;4936871;29;20039;-78
2024/03/25 02:58:56;;;;;;;2.85;1.10;;;12.80;83.40;;;;;;4954280;29;20102;-78
2024/03/25 03:01:22;;;;;;;3.15;1.00;;;12.70;83.40;;;;;;4937007;29;20090;-79
2024/03/25 03:03:47;;;;;;;2.83;1.00;;;12.70;83.30;;;;;;4937351;29;20039;-79
2024/03/25 03:06:13;;;;;;;4.05;1.25;;;12.80;83.40;;;;;;4937039;29;20585;-79
2024/03/25 03:08:39;;;;;;;3.53;1.10;;;12.80;83.40;;;;;;4937372;29;20036;-78
2024/03/25 03:11:04;;;;;;;1.63;0.80;;;12.80;83.40;;;;;;4937032;29;20121;-78
2024/03/25 03:13:30;;;;;;;4.68;1.20;;;12.80;83.40;;;;;;4954578;29;20027;-78
2024/03/25 03:15:55;;;;;;;2.90;1.20;;;12.80;83.40;;;;;;4954803;29;20023;-79
2024/03/25 03:18:21;;;;;;;3.70;1.08;;;12.70;83.40;;;;;;4955094;29;20023;-79
2024/03/25 03:20:47;;;;;;;2.90;1.08;;;12.80;83.50;;;;;;4937168;29;20500;-78
2024/03/25 03:23:13;;;;;;;3.40;1.20;;;12.80;83.40;;;;;;4954727;29;20087;-78
2024/03/25 03:25:40;;;;;;;3.97;1.17;;;12.80;83.50;;;;;;4954465;29;20380;-77
2024/03/25 03:28:06;;;;;;;3.55;0.90;;;12.80;83.40;;;;;;4954480;29;20392;-79
2024/03/25 03:30:32;;;;;;;3.75;1.05;;;12.70;83.90;;;;;;4952706;29;20039;-78
2024/03/25 03:32:57;;;;;;;3.13;1.17;;;12.70;83.50;;;;;;4937190;29;20034;-78
2024/03/25 03:35:25;;;;;;;2.60;1.20;;;12.80;83.50;;;;;;4954575;29;20155;-79
2024/03/25 03:37:52;;;;;;;4.05;1.25;;;12.70;83.40;;;;;;4937630;29;20050;-78
2024/03/25 03:40:18;;;;;;;2.67;1.00;;;12.60;83.50;;;;;;4936835;29;20019;-78
2024/03/25 03:42:43;;;;;;;3.70;1.20;;;12.80;83.60;;;;;;4937595;29;20038;-80
2024/03/25 03:45:09;;;;;;;3.30;0.98;;;12.80;83.50;;;;;;4954617;29;20476;-80
2024/03/25 03:47:34;;;;;;;2.13;0.85;;;12.70;83.50;;;;;;4936933;29;20020;-79
2024/03/25 03:50:00;;;;;;;2.95;1.20;;;12.80;83.50;;;;;;4954007;29;20499;-78
2024/03/25 03:52:26;;;;;;;3.25;1.15;;;12.70;83.40;;;;;;4952920;29;20054;-79
2024/03/25 03:54:51;;;;;;;2.70;1.00;;;12.70;83.50;;;;;;4936800;29;20027;-80
2024/03/25 03:57:17;;;;;;;3.58;1.08;;;12.70;83.50;;;;;;4955242;29;20163;-79
2024/03/25 03:59:42;;;;;;;2.38;1.08;;;12.80;83.50;;;;;;4954770;29;20031;-78
2024/03/25 04:02:08;;;;;;;4.07;1.13;;;12.70;83.50;;;;;;4922052;29;20027;-79
2024/03/25 04:04:34;;;;;;;3.53;1.10;;;12.70;83.50;;;;;;4954745;29;20403;-78
2024/03/25 04:07:01;;;;;;;3.22;0.88;;;12.60;83.50;;;;;;4954678;28;20031;-79
2024/03/25 04:09:29;;;;;;;3.42;1.20;;;12.80;83.50;;;;;;4957257;29;20027;-80
2024/03/25 04:11:55;;;;;;;3.72;0.85;;;12.80;83.50;;;;;;4940872;29;20180;-78
2024/03/25 04:14:20;;;;;;;3.03;1.10;;;12.70;83.50;;;;;;4940900;29;20071;-79
2024/03/25 04:16:47;;;;;;;3.72;1.05;;;12.70;83.60;;;;;;4957260;29;20211;-79
2024/03/25 04:19:13;;;;;;;3.67;1.00;;;12.70;83.60;;;;;;4957128;29;20030;-80
2024/03/25 04:21:39;;;;;;;2.72;0.98;;;12.70;83.60;;;;;;5079169;23;20065;-79
2024/03/25 04:24:08;;;;;;;4.68;1.00;;;12.70;83.60;;;;;;4998227;28;20106;-78
2024/03/25 04:29:49;;;;;;;4.63;1.52;;;12.70;83.60;;;;;;4991946;28;20557;-78
2024/03/25 04:39:37;;;;;;;3.55;1.00;;;12.70;83.70;;;;;;4934785;29;20151;-77
2024/03/25 04:42:44;;;;;;;3.80;1.10;;;12.70;83.60;;;;;;4920010;29;20024;-79
2024/03/25 04:45:51;;;;;;;2.80;0.90;;;12.80;83.70;;;;;;4935470;29;20138;-78
2024/03/25 04:49:10;;;;;;;3.25;1.10;;;12.70;83.70;;;;;;4935059;29;20032;-79
2024/03/25 04:51:36;;;;;;;3.58;1.13;;;12.70;83.70;;;;;;4885703;29;20110;-79
2024/03/25 04:54:17;;;;;;;3.95;1.17;;;12.70;83.60;;;;;;4918782;29;20705;-79
2024/03/25 04:56:57;;;;;;;2.75;1.10;;;13.10;84.00;;;;;;4917510;29;20511;-78
2024/03/25 05:00:10;;;;;;;;;;;;;;;;;;;;;
2024/03/25 05:03:29;;;;;;;3.20;1.00;;;12.70;83.70;;;;;;4805024;29;20035;-78
2024/03/25 05:05:58;;;;;;;2.88;0.88;;;12.70;83.70;;;;;;4770498;30;20040;-79
2024/03/25 05:08:23;;;;;;;2.90;0.90;;;12.80;83.80;;;;;;4786480;30;20028;-80
2024/03/25 05:10:49;;;;;;;4.00;1.27;;;12.70;83.80;;;;;;4785311;30;20568;-78
2024/03/25 05:13:15;;;;;;;4.32;1.10;;;12.70;83.80;;;;;;4846008;29;20040;-78
2024/03/25 05:15:43;;;;;;;3.55;1.02;;;12.60;83.70;;;;;;4914354;29;20029;-77
2024/03/25 05:18:08;;;;;;;4.03;1.30;;;12.70;83.70;;;;;;4912594;29;20139;-80
2024/03/25 05:20:34;;;;;;;3.17;1.02;;;12.70;83.70;;;;;;4927100;29;20094;-79
2024/03/25 05:23:00;;;;;;;2.25;1.00;;;12.70;83.70;;;;;;4934363;29;20039;-78
2024/03/25 05:25:28;;;;;;;3.33;1.35;;;12.70;83.80;;;;;;4918435;29;20181;-77
2024/03/25 05:27:54;;;;;;;3.25;1.13;;;12.80;83.80;;;;;;4931889;29;20564;-79
2024/03/25 05:30:19;;;;;;;3.38;1.10;;;12.80;83.80;;;;;;4931800;29;20055;-78
2024/03/25 05:32:45;;;;;;;2.47;1.02;;;12.80;83.80;;;;;;4932031;29;20038;-79
2024/03/25 05:35:10;;;;;;;3.20;1.00;;;12.80;83.90;;;;;;4900209;29;20067;-79
2024/03/25 05:37:37;;;;;;;2.97;1.13;;;12.70;83.80;;;;;;4991346;28;20034;-79
2024/03/25 05:40:03;;;;;;;3.78;1.52;;;12.60;83.70;;;;;;4994269;28;20030;-78
2024/03/25 05:42:29;;;;;;;2.80;1.13;;;12.70;83.80;;;;;;4994485;28;20025;-78
2024/03/25 05:44:54;;;;;;;3.78;1.27;;;12.70;83.80;;;;;;4994527;28;20065;-79
2024/03/25 05:47:20;;;;;;;3.58;0.98;;;12.80;83.80;;;;;;5012438;28;20026;-78
2024/03/25 05:49:47;;;;;;;3.30;1.20;;;12.70;83.80;;;;;;5011905;28;20084;-78
2024/03/25 05:52:13;;;;;;;3.05;1.08;;;12.70;83.80;;;;;;5015272;28;20022;-79
2024/03/25 05:54:38;;;;;;;2.95;1.00;;;12.70;83.80;;;;;;4996223;28;20040;-79
2024/03/25 05:57:04;;;;;;;3.95;1.10;;;12.70;83.80;;;;;;4994238;28;20026;-78
2024/03/25 05:59:29;;;;;;;4.15;1.00;;;12.70;83.80;;;;;;5010617;28;20058;-77
2024/03/25 06:01:55;;;;;;;3.50;1.20;;;12.70;83.80;;;;;;5012201;28;20045;-78
2024/03/25 06:04:20;;;;;;;2.78;0.90;;;12.70;83.80;;;;;;4993740;28;20060;-77
2024/03/25 06:06:46;;;;;;;3.70;1.20;;;12.70;83.80;;;;;;5011443;28;20374;-78
2024/03/25 06:09:12;;;;;;;2.55;1.20;;;12.60;83.80;;;;;;5010957;28;20114;-78
2024/03/25 06:11:37;;;;;;;3.47;1.00;;;12.60;83.80;;;;;;5011483;28;20034;-78
2024/03/25 06:14:03;;;;;;;3.33;1.00;;;12.70;83.80;;;;;;5011648;28;20966;-79
2024/03/25 06:16:29;;;;;;;3.85;1.08;;;12.70;83.90;;;;;;4961499;28;20034;-78
2024/03/25 06:18:54;;;;;;;2.90;1.05;;;12.70;83.80;;;;;;5011936;28;20030;-81
2024/03/25 06:22:09;;;;;;;3.13;1.02;;;12.70;83.80;;;;;;5016242;23;20519;-78
2024/03/25 06:24:37;;;;;;;4.10;1.20;;;12.70;83.90;;;;;;4987978;28;20190;-76
2024/03/25 06:27:03;;;;;;;3.78;1.10;;;12.70;83.90;;;;;;4971135;28;20126;-77
2024/03/25 06:29:35;;;;;;;3.35;0.98;;;12.70;83.90;;;;;;4970171;28;20133;-78
2024/03/25 06:34:45;;;;;;;3.08;1.02;;;12.70;83.90;;;;;;4972044;28;19999;-77
2024/03/25 06:37:10;;;;;;;2.65;0.80;;;12.70;83.90;;;;;;4970559;28;20027;-79
2024/03/25 06:39:36;;;;;;;3.22;1.00;;;12.60;83.80;;;;;;4972260;28;20030;-78
2024/03/25 06:42:02;;;;;;;3.20;1.20;;;12.70;83.80;;;;;;4972963;28;20031;-79
2024/03/25 06:44:27;;;;;;;5.90;1.33;;;12.70;83.70;;;;;;4970762;28;20050;-78
2024/03/25 06:46:54;;;;;;;3.30;1.02;;;12.70;83.70;;;;;;4970772;28;20031;-79
2024/03/25 06:49:19;;;;;;;3.92;1.02;;;12.70;83.70;;;;;;4972243;28;20090;-78
2024/03/25 06:51:45;;;;;;;2.83;1.05;;;12.80;83.80;;;;;;4972248;28;20085;-79
2024/03/25 06:54:11;;;;;;;4.88;1.48;;;12.70;83.70;;;;;;4974119;28;20086;-78
2024/03/25 06:56:36;;;;;;;4.28;1.25;;;12.70;83.80;;;;;;4970009;28;20057;-78
2024/03/25 06:59:02;;;;;;;3.25;1.13;;;12.70;83.80;;;;;;4953968;28;20034;-78
2024/03/25 07:01:28;;;;;;;4.90;1.20;;;12.60;83.70;;;;;;4972472;28;20543;-78
2024/03/25 07:03:54;;;;;;;4.65;1.35;;;12.80;83.80;;;;;;4972106;28;20377;-78
2024/03/25 07:06:19;;;;;;;5.00;1.60;;;12.70;83.80;;;;;;4970253;28;20038;-78
2024/03/25 07:08:47;;;;;;;3.63;1.17;;;12.70;83.80;;;;;;4970574;28;20388;-78
2024/03/25 07:11:13;;;;;;;3.85;1.20;;;12.70;83.80;;;;;;4970738;28;20435;-79
2024/03/25 07:13:38;;;;;;;3.35;1.20;;;12.80;83.90;;;;;;4970340;28;20035;-78
2024/03/25 07:16:04;;;;;;;2.95;1.00;;;12.70;83.80;;;;;;4969771;28;20042;-78
2024/03/25 07:18:30;;;;;;;2.28;0.90;;;12.70;83.70;;;;;;4970914;28;20053;-78
2024/03/25 07:20:55;;;;;;;2.70;0.90;;;12.70;83.70;;;;;;4969901;28;20034;-78
2024/03/25 07:23:21;;;;;;;3.90;1.10;;;12.70;83.80;;;;;;4970893;28;20101;-77
2024/03/25 07:25:46;;;;;;;3.05;1.00;;;12.70;83.70;;;;;;4970985;28;20035;-78
2024/03/25 07:28:12;;;;;;;3.45;0.93;;;12.80;83.80;;;;;;4970174;28;20027;-78
2024/03/25 07:30:37;;;;;;;2.60;1.10;;;12.70;83.70;;;;;;4971123;28;20475;-79
2024/03/25 07:33:04;;;;;;;3.25;1.10;;;12.80;84.00;;;;;;4969449;28;20030;-80
2024/03/25 07:35:30;;;;;;;3.80;1.10;;;12.70;83.70;;;;;;4969884;28;20077;-79
2024/03/25 07:37:55;;;;;;;1.95;0.93;;;12.80;83.70;;;;;;4971337;28;20031;-78
2024/03/25 07:40:22;;;;;;;3.90;1.00;;;12.80;83.70;;;;;;4969786;28;20037;-78
2024/03/25 07:42:48;;;;;;;1.80;0.85;;;12.70;83.60;;;;;;4973122;28;20073;-80
2024/03/25 07:45:15;;;;;;;3.80;1.17;;;12.80;83.70;;;;;;4974878;28;20026;-78
2024/03/25 07:47:40;;;;;;;2.75;1.00;;;12.80;83.60;;;;;;4974577;28;20125;-77
2024/03/25 07:50:06;;;;;;;3.17;1.02;;;12.80;83.60;;;;;;4974433;28;20479;-78
2024/03/25 07:52:32;;;;;;;3.63;1.20;;;12.80;83.50;;;;;;4974555;28;20023;-77
2024/03/25 07:54:58;;;;;;;3.80;1.30;;;12.70;83.50;;;;;;4972809;28;20035;-79
2024/03/25 07:57:23;;;;;;;3.47;1.10;;;12.90;83.60;;;;;;4974114;28;20026;-78
2024/03/25 07:59:49;;;;;;;2.80;1.25;;;12.90;83.60;;;;;;4972702;28;20447;-78
2024/03/25 08:02:15;;;;;;;4.00;1.00;;;12.80;83.60;;;;;;4974126;28;20531;-79
2024/03/25 08:04:41;;;;;;;2.33;1.08;;;12.80;83.50;;;;;;4973261;28;20057;-78
2024/03/25 08:07:06;;;;;;;3.60;1.05;;;12.80;83.60;;;;;;4974534;28;20121;-78
2024/03/25 08:09:32;;;;;;;4.50;1.30;;;12.70;83.50;;;;;;4956435;28;20495;-78
2024/03/25 08:11:58;;;;;;;3.15;1.10;;;12.80;83.60;;;;;;4973436;28;20041;-79
2024/03/25 08:14:24;;;;;;;3.10;1.15;;;12.80;83.60;;;;;;4972793;28;20046;-78
2024/03/25 08:16:50;;;;;;;4.07;1.20;;;12.80;83.50;;;;;;4973954;28;20027;-78
2024/03/25 08:19:16;;;;;;;2.90;1.10;;;12.80;83.50;;;;;;4972890;28;20490;-78
2024/03/25 08:21:41;;;;;;;2.80;1.20;;;12.80;83.60;;;;;;4972327;28;20515;-78
2024/03/25 08:24:07;;;;;;;3.50;1.00;;;12.80;83.60;;;;;;4973455;28;20023;-77
2024/03/25 08:26:33;;;;;;;2.60;1.00;;;12.80;83.50;;;;;;4972816;28;20035;-78
2024/03/25 08:28:59;;;;;;;3.88;1.20;;;12.90;83.60;;;;;;4974019;28;20450;-78
2024/03/25 08:31:24;;;;;;;3.40;1.25;;;12.90;83.60;;;;;;4973681;28;20031;-78
2024/03/25 08:33:50;;;;;;;3.05;1.10;;;12.90;83.60;;;;;;4973881;28;20038;-79
2024/03/25 08:36:16;;;;;;;2.15;1.00;;;12.90;83.60;;;;;;4972840;28;20022;-81
2024/03/25 08:38:41;;;;;;;4.50;1.30;;;12.90;83.60;;;;;;4973664;28;20550;-79
2024/03/25 08:41:07;;;;;;;3.75;1.20;;;12.90;83.50;;;;;;4973841;28;20110;-78
2024/03/25 08:43:33;;;;;;;3.58;1.10;;;12.90;83.60;;;;;;4989702;28;20553;-79
2024/03/25 08:45:58;;;;;;;2.17;0.90;;;12.90;83.60;;;;;;4975538;28;20443;-78
2024/03/25 08:48:24;;;;;;;3.53;1.02;;;12.90;83.60;;;;;;4976317;28;20039;-81
2024/03/25 08:50:49;;;;;;;3.97;1.20;;;12.90;83.60;;;;;;4993789;28;20033;-79
2024/03/25 08:53:15;;;;;;;2.95;1.10;;;12.90;83.60;;;;;;4975431;28;20042;-78
2024/03/25 08:55:47;;;;;;;3.50;1.00;;;12.90;83.50;;;;;;4992625;28;20026;-78
2024/03/25 08:58:16;;;;;;;3.92;1.10;;;12.90;83.60;;;;;;4991681;28;20026;-79
2024/03/25 09:00:42;;;;;;;2.30;0.90;;;12.90;83.50;;;;;;4992504;28;20500;-78
2024/03/25 09:03:10;;;;;;;2.45;1.05;;;12.90;83.50;;;;;;4992397;28;20031;-78
2024/03/25 09:05:36;;;;;;;4.20;1.15;;;12.90;83.40;;;;;;4991370;28;20030;-79
2024/03/25 09:08:02;;;;;;;3.03;1.10;;;13.00;83.50;;;;;;4993453;28;20050;-80
2024/03/25 09:13:13;;;;;;;5.07;1.40;;;13.00;83.30;;;;;;4992831;28;20037;-78
2024/03/25 09:15:39;;;;;;;3.33;1.08;;;13.10;83.20;;;;;;4991213;28;20026;-78
2024/03/25 09:18:04;;;;;;;3.95;1.23;;;13.00;83.00;;;;;;4991683;28;20065;-77
2024/03/25 09:20:30;;;;;;;3.53;1.15;;;13.10;83.00;;;;;;4990825;28;20407;-78
2024/03/25 09:22:56;;;;;;;3.33;1.20;;;13.10;83.00;;;;;;4991118;28;20018;-79
2024/03/25 09:25:21;;;;;;;3.92;1.05;;;13.00;82.90;;;;;;4992334;28;20037;-78
2024/03/25 09:27:47;;;;;;;3.47;1.23;;;13.10;82.90;;;;;;4991709;28;20137;-78
2024/03/25 09:30:14;;;;;;;3.67;1.27;;;13.10;83.10;;;;;;4991725;28;20088;-78
2024/03/25 09:32:41;;;;;;;3.03;1.00;;;12.90;83.00;;;;;;4974833;28;20018;-77
2024/03/25 09:35:07;;;;;;;2.72;1.13;;;13.00;83.20;;;;;;4990526;28;20061;-78
2024/03/25 09:37:35;;;;;;;1.75;0.90;;;13.00;83.30;;;;;;4991046;28;20822;-79
2024/03/25 09:40:01;;;;;;;3.40;1.10;;;13.10;83.00;;;;;;4993446;28;20027;-78
2024/03/25 09:42:49;;;;;;;2.40;1.08;;;13.10;82.90;;;;;;4991387;28;20072;-78
2024/03/25 09:45:18;;;;;;;2.40;1.02;;;13.10;82.80;;;;;;4991001;28;20045;-78
2024/03/25 09:47:48;;;;;;;2.15;0.90;;;13.20;83.20;;;;;;4990397;28;20034;-78
2024/03/25 09:50:19;;;;;;;2.60;1.02;;;13.20;82.70;;;;;;4991298;28;20112;-78
2024/03/25 09:52:45;;;;;;;3.08;0.98;;;13.20;82.70;;;;;;4991645;28;20733;-79
2024/03/25 09:55:11;;;;;;;2.42;0.90;;;13.20;82.80;;;;;;4973814;28;20038;-77
2024/03/25 09:57:38;;;;;;;2.88;1.02;;;13.20;82.80;;;;;;4991005;28;20022;-77
2024/03/25 10:00:05;;;;;;;3.92;1.00;;;13.10;82.80;;;;;;4990180;28;20026;-79
2024/03/25 10:02:31;;;;;;;3.42;1.15;;;13.10;82.80;;;;;;4990412;28;20026;-78
2024/03/25 10:04:57;;;;;;;3.38;0.90;;;13.10;82.80;;;;;;4990984;28;20117;-78
2024/03/25 10:07:24;;;;;;;3.42;1.10;;;13.20;82.80;;;;;;4989840;28;20149;-77
2024/03/25 10:09:50;;;;;;;2.80;1.10;;;13.10;82.90;;;;;;4989777;28;20030;-78
2024/03/25 10:12:24;;;;;;;4.00;1.10;;;13.10;83.00;;;;;;4991368;28;20034;-78
2024/03/25 10:14:50;;;;;;;2.55;1.00;;;13.10;82.90;;;;;;4990678;28;20035;-78
2024/03/25 10:17:16;;;;;;;1.98;0.93;;;13.10;83.00;;;;;;4989740;28;20474;-78
2024/03/25 10:19:41;;;;;;;2.58;0.90;;;13.20;82.90;;;;;;4990928;28;20037;-78
2024/03/25 10:22:08;;;;;;;4.03;1.10;;;13.30;82.70;;;;;;4989690;28;20118;-78
2024/03/25 10:24:38;;;;;;;2.88;1.25;;;13.30;82.70;;;;;;4991182;28;20034;-79
2024/03/25 10:27:05;;;;;;;3.05;1.17;;;13.20;82.50;;;;;;4989689;28;20034;-79
2024/03/25 10:29:30;;;;;;;3.63;1.00;;;13.30;82.40;;;;;;4989492;28;20114;-80
2024/03/25 10:32:00;;;;;;;3.08;0.90;;;13.40;82.90;;;;;;4989398;28;20050;-78
2024/03/25 10:34:25;;;;;;;2.88;1.00;;;13.40;82.40;;;;;;4989506;28;20094;-78
2024/03/25 10:36:55;;;;;;;3.05;0.95;;;13.30;82.30;;;;;;4989952;28;20096;-78
2024/03/25 10:39:29;;;;;;;4.65;1.10;;;13.30;82.40;;;;;;4990012;28;20549;-79
2024/03/25 10:41:57;;;;;;;2.78;0.90;;;13.30;82.50;;;;;;4989570;28;20058;-78
2024/03/25 10:44:26;;;;;;;4.00;1.00;;;13.30;82.50;;;;;;4989421;28;20026;-79
2024/03/25 10:46:58;;;;;;;2.42;0.90;;;13.20;82.70;;;;;;4989640;28;20031;-78
2024/03/25 10:49:26;;;;;;;;;;;13.30;82.80;;;;;;4991385;28;20034;-78
2024/03/25 10:51:54;;;;;;;2.20;0.90;;;13.20;82.90;;;;;;4989496;28;19949;-79
2024/03/25 10:54:20;;;;;;;2.58;0.85;;;13.20;82.90;;;;;;4989333;28;20034;-78
2024/03/25 10:56:51;;;;;;;2.03;0.85;;;13.20;83.00;;;;;;4989728;28;20454;-77
2024/03/25 10:59:18;;;;;;;4.38;1.10;;;13.10;83.00;;;;;;4990643;28;20034;-78
2024/03/25 11:01:43;;;;;;;2.67;0.98;;;13.20;83.00;;;;;;4989427;28;20438;-77
2024/03/25 11:04:10;;;;;;;3.40;1.10;;;13.20;82.80;;;;;;5005645;28;20046;-78
2024/03/25 11:06:35;;;;;;;2.97;0.85;;;13.20;82.80;;;;;;4989460;28;20413;-78
2024/03/25 11:09:01;;;;;;;2.58;0.95;;;13.30;82.80;;;;;;4989532;28;20030;-78
2024/03/25 11:11:36;;;;;;;2.80;1.05;;;13.30;82.50;;;;;;4990846;28;20463;-77
2024/03/25 11:14:15;;;;;;;2.35;0.90;;;13.30;82.30;;;;;;4989922;28;20376;-78
2024/03/25 11:16:41;;;;;;;3.72;1.00;;;13.50;82.20;;;;;;4992913;28;20022;-78
2024/03/25 11:19:10;;;;;;;2.65;0.90;;;13.50;81.90;;;;;;4995107;28;20038;-78
2024/03/25 11:21:36;;;;;;;3.13;0.98;;;13.50;81.70;;;;;;4993252;28;20164;-78
2024/03/25 11:24:09;;;;;;;2.60;0.88;;;13.60;81.50;;;;;;4994502;28;20100;-76
2024/03/25 11:26:37;;;;;;;2.55;1.00;;;13.50;81.30;;;;;;4993177;28;20038;-78
2024/03/25 11:29:05;;;;;;;2.55;0.80;;;13.60;81.20;;;;;;4992897;28;20792;-78
2024/03/25 11:31:33;;;;;;;2.97;0.88;;;13.70;81.30;;;;;;4993952;28;20027;-78
2024/03/25 11:34:04;;;;;;;1.92;0.70;;;13.70;81.30;;;;;;4993274;28;20034;-78
2024/03/25 11:36:30;;;;;;;2.65;0.98;;;13.70;81.30;;;;;;4994375;28;20026;-79
2024/03/25 11:39:09;;;;;;;2.67;0.82;;;13.80;81.80;;;;;;4994635;28;20030;-78
2024/03/25 11:41:42;;;;;;;2.78;0.93;;;13.70;81.20;;;;;;4994558;28;20030;-80
2024/03/25 11:44:14;;;;;;;2.05;0.80;;;13.70;81.30;;;;;;4992897;28;20030;-78
2024/03/25 11:46:41;;;;;;;1.50;0.70;;;13.70;81.30;;;;;;4977392;28;20065;-79
2024/03/25 11:49:09;;;;;;;3.10;1.00;;;13.70;81.30;;;;;;4976634;28;20046;-79
2024/03/25 11:51:35;;;;;;;1.58;0.75;;;13.70;81.40;;;;;;4993812;28;20030;-78
2024/03/25 11:54:03;;;;;;;3.05;1.00;;;13.60;81.90;;;;;;4993770;28;20394;-77
2024/03/25 11:56:33;;;;;;;2.15;0.80;;;13.60;81.50;;;;;;4992848;28;20033;-78
2024/03/25 11:59:02;;;;;;;3.10;1.00;;;13.60;81.60;;;;;;4993590;28;20033;-78
2024/03/25 12:01:31;;;;;;;2.28;0.90;;;13.70;81.70;;;;;;4992502;28;20046;-78
2024/03/25 12:03:57;;;;;;;3.33;1.02;;;13.70;81.80;;;;;;4993768;28;20065;-78
2024/03/25 12:06:23;;;;;;;2.17;0.90;;;13.60;81.70;;;;;;4992770;28;20057;-78
2024/03/25 12:11:33;;;;;;;2.17;0.80;;;13.50;81.90;;;;;;4993863;28;20454;-80
2024/03/25 12:14:00;;;;;;;2.90;1.00;;;13.60;82.10;;;;;;4994296;28;20034;-78
2024/03/25 12:16:26;;;;;;;2.08;0.80;;;13.50;82.10;;;;;;4992767;28;20034;-78
2024/03/25 12:18:52;;;;;;;2.10;0.80;;;13.50;82.10;;;;;;4993310;28;20371;-78
2024/03/25 12:21:19;;;;;;;2.22;0.80;;;13.60;82.20;;;;;;4992906;28;20030;-76
2024/03/25 12:23:46;;;;;;;2.50;0.93;;;13.60;82.20;;;;;;4993695;28;20030;-80
2024/03/25 12:26:12;;;;;;;2.58;0.90;;;13.50;82.20;;;;;;4992778;28;20542;-78
2024/03/25 12:28:39;;;;;;;2.65;1.00;;;13.50;82.20;;;;;;5007043;28;20034;-78
2024/03/25 12:31:08;;;;;;;1.33;0.80;;;13.50;82.30;;;;;;4993336;28;20038;-79
2024/03/25 12:33:44;;;;;;;3.95;1.20;;;13.40;82.30;;;;;;4975790;28;20069;-78
2024/03/25 12:36:12;;;;;;;1.55;0.90;;;13.50;82.40;;;;;;4993408;28;20038;-78
2024/03/25 12:38:38;;;;;;;2.42;0.82;;;13.50;82.40;;;;;;4991958;28;20030;-78
2024/03/25 12:41:05;;;;;;;2.55;1.10;;;13.40;82.40;;;;;;4991416;28;20843;-78
2024/03/25 12:43:32;;;;;;;1.73;0.82;;;13.50;82.50;;;;;;4993502;28;20109;-78
2024/03/25 12:45:58;;;;;;;2.75;0.95;;;13.50;82.50;;;;;;4992859;28;20534;-77
2024/03/25 12:48:25;;;;;;;2.28;0.88;;;13.50;82.60;;;;;;4992408;28;20401;-78
2024/03/25 12:50:52;;;;;;;2.53;0.90;;;13.50;82.60;;;;;;4992453;28;20027;-78
2024/03/25 12:53:18;;;;;;;2.33;0.88;;;13.40;82.60;;;;;;4991751;28;20030;-78
2024/03/25 12:55:45;;;;;;;2.47;0.90;;;13.40;82.60;;;;;;4991954;28;20026;-79
2024/03/25 12:58:11;;;;;;;1.40;0.73;;;13.30;82.60;;;;;;4991450;28;20042;-79
2024/03/25 13:00:38;;;;;;;2.17;1.02;;;13.40;82.70;;;;;;4992733;28;20038;-78
2024/03/25 13:03:04;;;;;;;3.22;0.98;;;13.30;82.70;;;;;;4991215;28;20022;-78
2024/03/25 13:05:31;;;;;;;1.50;0.70;;;13.40;82.80;;;;;;4992542;28;20034;-79
2024/03/25 13:07:57;;;;;;;2.42;0.80;;;13.40;82.80;;;;;;4991533;28;20034;-77